createdAt,value
2023-04-01T00:00:13.391Z,989.22
2023-04-01T00:01:13.413Z,989.32
2023-04-01T00:02:13.461Z,989.24
2023-04-01T00:03:13.542Z,989.24
2023-04-01T00:04:13.503Z,989.23
2023-04-01T00:05:13.519Z,989.26
2023-04-01T00:06:13.550Z,989.20
2023-04-01T00:07:13.573Z,989.18
2023-04-01T00:08:13.599Z,989.26
2023-04-01T00:09:13.624Z,989.20
2023-04-01T00:10:13.653Z,989.27
2023-04-01T00:11:13.674Z,989.20
2023-04-01T00:12:13.701Z,989.26
2023-04-01T00:13:13.749Z,989.19
2023-04-01T00:14:13.754Z,989.23
2023-04-01T00:15:13.786Z,989.28
2023-04-01T00:16:20.485Z,989.29
2023-04-01T00:17:13.833Z,989.26
2023-04-01T00:18:13.866Z,989.30
2023-04-01T00:19:13.883Z,989.20
2023-04-01T00:20:13.909Z,989.25
2023-04-01T00:21:13.936Z,989.22
2023-04-01T00:22:13.968Z,989.23
2023-04-01T00:23:13.989Z,989.28
2023-04-01T00:24:14.020Z,989.24
2023-04-01T00:25:14.045Z,989.29
2023-04-01T00:26:14.068Z,989.24
2023-04-01T00:27:14.092Z,989.25
2023-04-01T00:28:14.120Z,989.23
2023-04-01T00:29:14.166Z,989.22
2023-04-01T00:30:14.174Z,989.22
2023-04-01T00:31:14.254Z,989.20
2023-04-01T00:32:14.226Z,989.24
2023-04-01T00:33:14.253Z,989.20
2023-04-01T00:34:14.285Z,989.20
2023-04-01T00:35:14.311Z,989.12
2023-04-01T00:36:14.375Z,989.23
2023-04-01T00:37:14.366Z,989.06
2023-04-01T00:38:14.388Z,989.20
2023-04-01T00:39:14.410Z,989.17
2023-04-01T00:40:14.438Z,989.11
2023-04-01T00:41:14.463Z,989.09
2023-04-01T00:42:14.495Z,989.15
2023-04-01T00:43:14.515Z,989.19
2023-04-01T00:44:14.544Z,989.12
2023-04-01T00:45:14.591Z,989.08
2023-04-01T00:46:14.647Z,989.13
2023-04-01T00:47:14.704Z,989.02
2023-04-01T00:48:14.658Z,989.03
2023-04-01T00:49:14.675Z,989.11
2023-04-01T00:50:14.704Z,989.05
2023-04-01T00:51:14.728Z,989.13
2023-04-01T00:52:14.754Z,989.11
2023-04-01T00:53:14.781Z,989.11
2023-04-01T00:54:14.882Z,989.07
2023-04-01T00:55:14.923Z,989.08
2023-04-01T00:56:14.953Z,989.09
2023-04-01T00:57:14.909Z,989.07
2023-04-01T00:58:14.918Z,989.08
2023-04-01T00:59:14.986Z,989.07
2023-04-01T01:00:15.025Z,989.07
2023-04-01T01:01:15.044Z,989.04
2023-04-01T01:02:15.099Z,989.08
2023-04-01T01:03:15.171Z,989.10
2023-04-01T01:04:15.068Z,989.05
2023-04-01T01:05:15.093Z,989.01
2023-04-01T01:06:15.122Z,989.00
2023-04-01T01:07:15.148Z,989.02
2023-04-01T01:08:15.174Z,989.00
2023-04-01T01:09:15.214Z,989.04
2023-04-01T01:10:15.240Z,989.07
2023-04-01T01:11:15.247Z,989.01
2023-04-01T01:12:15.279Z,988.99
2023-04-01T01:13:15.304Z,989.02
2023-04-01T01:14:15.335Z,989.00
2023-04-01T01:15:15.354Z,989.01
2023-04-01T01:16:15.393Z,989.05
2023-04-01T01:17:15.429Z,989.04
2023-04-01T01:18:15.454Z,988.92
2023-04-01T01:19:15.460Z,989.00
2023-04-01T01:20:25.411Z,989.00
2023-04-01T01:21:15.513Z,988.93
2023-04-01T01:22:15.696Z,988.96
2023-04-01T01:23:15.565Z,988.99
2023-04-01T01:24:15.592Z,988.92
2023-04-01T01:25:15.617Z,988.95
2023-04-01T01:26:15.646Z,988.92
2023-04-01T01:27:15.670Z,988.90
2023-04-01T01:28:15.697Z,988.88
2023-04-01T01:29:15.734Z,988.92
2023-04-01T01:30:15.758Z,988.94
2023-04-01T01:31:15.900Z,988.86
2023-04-01T01:32:15.803Z,988.87
2023-04-01T01:33:15.855Z,988.89
2023-04-01T01:34:15.869Z,988.90
2023-04-01T01:35:15.882Z,988.92
2023-04-01T01:36:15.953Z,988.91
2023-04-01T01:37:15.932Z,988.94
2023-04-01T01:38:15.963Z,988.91
2023-04-01T01:39:15.986Z,988.90
2023-04-01T01:40:16.019Z,988.90
2023-04-01T01:41:16.041Z,988.90
2023-04-01T01:42:16.068Z,988.90
2023-04-01T01:43:16.095Z,988.92
2023-04-01T01:44:16.123Z,988.86
2023-04-01T01:45:16.154Z,988.91
2023-04-01T01:46:16.218Z,988.90
2023-04-01T01:47:16.195Z,988.91
2023-04-01T01:48:16.224Z,988.92
2023-04-01T01:49:16.273Z,988.94
2023-04-01T01:50:16.274Z,988.90
2023-04-01T01:51:16.302Z,988.95
2023-04-01T01:52:16.327Z,988.97
2023-04-01T01:53:16.355Z,988.94
2023-04-01T01:54:16.387Z,988.92
2023-04-01T01:55:16.408Z,989.00
2023-04-01T01:56:16.433Z,988.89
2023-04-01T01:57:16.504Z,988.90
2023-04-01T01:58:16.491Z,988.94
2023-04-01T01:59:16.527Z,988.91
2023-04-01T02:00:16.560Z,988.93
2023-04-01T02:01:16.604Z,988.90
2023-04-01T02:02:16.592Z,988.98
2023-04-01T02:03:16.621Z,988.96
2023-04-01T02:04:16.791Z,989.03
2023-04-01T02:05:16.695Z,988.94
2023-04-01T02:06:16.735Z,988.98
2023-04-01T02:07:16.724Z,989.03
2023-04-01T02:08:16.749Z,988.96
2023-04-01T02:09:16.777Z,989.05
2023-04-01T02:10:16.807Z,989.05
2023-04-01T02:11:16.830Z,989.04
2023-04-01T02:12:16.853Z,989.04
2023-04-01T02:13:16.882Z,989.02
2023-04-01T02:14:16.915Z,989.01
2023-04-01T02:15:16.937Z,989.06
2023-04-01T02:16:16.977Z,989.09
2023-04-01T02:17:17.003Z,989.04
2023-04-01T02:18:17.011Z,989.06
2023-04-01T02:19:17.040Z,989.10
2023-04-01T02:20:17.062Z,989.10
2023-04-01T02:21:17.117Z,989.08
2023-04-01T02:22:17.116Z,989.05
2023-04-01T02:23:17.143Z,989.07
2023-04-01T02:24:17.169Z,989.07
2023-04-01T02:25:17.203Z,989.03
2023-04-01T02:26:17.224Z,989.07
2023-04-01T02:27:17.248Z,989.10
2023-04-01T02:28:17.270Z,989.09
2023-04-01T02:29:17.300Z,989.12
2023-04-01T02:30:17.324Z,989.09
2023-04-01T02:31:17.371Z,989.06
2023-04-01T02:32:17.381Z,989.06
2023-04-01T02:33:17.402Z,989.03
2023-04-01T02:34:17.448Z,989.05
2023-04-01T02:35:17.454Z,989.02
2023-04-01T02:36:17.553Z,989.06
2023-04-01T02:37:17.525Z,989.07
2023-04-01T02:38:17.532Z,989.04
2023-04-01T02:39:17.556Z,989.04
2023-04-01T02:40:17.590Z,989.05
2023-04-01T02:41:17.614Z,989.02
2023-04-01T02:42:17.633Z,989.02
2023-04-01T02:43:17.660Z,989.01
2023-04-01T02:44:17.688Z,989.07
2023-04-01T02:45:17.720Z,989.01
2023-04-01T02:46:17.769Z,988.97
2023-04-01T02:47:17.765Z,988.97
2023-04-01T02:48:17.789Z,989.01
2023-04-01T02:49:17.819Z,988.99
2023-04-01T02:50:17.842Z,988.99
2023-04-01T02:51:18.545Z,989.05
2023-04-01T02:52:17.896Z,989.06
2023-04-01T02:53:17.946Z,988.98
2023-04-01T02:54:17.946Z,988.98
2023-04-01T02:55:17.978Z,988.98
2023-04-01T02:56:18.000Z,988.99
2023-04-01T02:57:18.101Z,988.96
2023-04-01T02:58:18.055Z,988.96
2023-04-01T02:59:18.083Z,989.02
2023-04-01T03:00:18.101Z,988.94
2023-04-01T03:01:18.240Z,988.98
2023-04-01T03:02:18.166Z,988.86
2023-04-01T03:03:18.227Z,988.88
2023-04-01T03:04:18.217Z,988.91
2023-04-01T03:05:18.240Z,988.92
2023-04-01T03:06:18.293Z,988.96
2023-04-01T03:07:18.287Z,988.92
2023-04-01T03:08:18.306Z,988.93
2023-04-01T03:09:18.357Z,988.94
2023-04-01T03:10:18.359Z,988.91
2023-04-01T03:11:18.386Z,988.93
2023-04-01T03:12:18.411Z,988.89
2023-04-01T03:13:18.438Z,988.91
2023-04-01T03:14:18.464Z,988.95
2023-04-01T03:15:18.491Z,988.97
2023-04-01T03:16:18.569Z,988.95
2023-04-01T03:17:18.537Z,988.98
2023-04-01T03:18:18.564Z,989.02
2023-04-01T03:19:18.589Z,988.96
2023-04-01T03:20:18.614Z,988.99
2023-04-01T03:21:18.640Z,988.98
2023-04-01T03:22:18.665Z,989.04
2023-04-01T03:23:18.689Z,988.97
2023-04-01T03:24:18.718Z,988.99
2023-04-01T03:25:18.770Z,988.92
2023-04-01T03:26:18.764Z,988.97
2023-04-01T03:27:18.791Z,989.03
2023-04-01T03:28:18.817Z,988.99
2023-04-01T03:29:18.853Z,988.97
2023-04-01T03:30:18.915Z,989.02
2023-04-01T03:31:20.414Z,988.99
2023-04-01T03:32:18.916Z,989.00
2023-04-01T03:33:18.944Z,989.04
2023-04-01T03:34:18.969Z,989.02
2023-04-01T03:35:18.995Z,989.05
2023-04-01T03:36:19.049Z,989.09
2023-04-01T03:37:19.056Z,989.06
2023-04-01T03:38:19.072Z,989.03
2023-04-01T03:39:19.101Z,989.00
2023-04-01T03:40:19.128Z,989.07
2023-04-01T03:41:19.172Z,989.08
2023-04-01T03:42:19.177Z,989.11
2023-04-01T03:43:19.198Z,989.08
2023-04-01T03:44:19.222Z,989.09
2023-04-01T03:45:19.257Z,989.12
2023-04-01T03:46:19.396Z,989.07
2023-04-01T03:47:19.299Z,989.06
2023-04-01T03:48:19.331Z,989.09
2023-04-01T03:49:19.358Z,989.09
2023-04-01T03:50:19.377Z,989.11
2023-04-01T03:51:19.403Z,989.10
2023-04-01T03:52:19.481Z,989.08
2023-04-01T03:53:19.461Z,989.07
2023-04-01T03:54:19.481Z,989.10
2023-04-01T03:55:19.513Z,989.06
2023-04-01T03:56:19.532Z,989.05
2023-04-01T03:57:19.631Z,989.15
2023-04-01T03:58:19.585Z,989.01
2023-04-01T03:59:19.611Z,989.10
2023-04-01T04:00:19.635Z,989.07
2023-04-01T04:01:19.665Z,989.00
2023-04-01T04:02:19.741Z,989.06
2023-04-01T04:03:19.807Z,989.04
2023-04-01T04:04:19.905Z,989.05
2023-04-01T04:05:19.766Z,989.08
2023-04-01T04:06:19.819Z,989.07
2023-04-01T04:07:19.822Z,989.10
2023-04-01T04:08:19.841Z,989.08
2023-04-01T04:09:19.870Z,989.07
2023-04-01T04:10:19.897Z,989.10
2023-04-01T04:11:19.928Z,989.11
2023-04-01T04:12:19.945Z,989.11
2023-04-01T04:13:19.992Z,989.10
2023-04-01T04:14:19.999Z,989.13
2023-04-01T04:15:20.031Z,989.15
2023-04-01T04:16:20.090Z,989.15
2023-04-01T04:17:20.076Z,989.10
2023-04-01T04:18:20.106Z,989.11
2023-04-01T04:19:20.131Z,989.17
2023-04-01T04:20:20.154Z,989.16
2023-04-01T04:21:20.187Z,989.13
2023-04-01T04:22:20.207Z,989.13
2023-04-01T04:23:20.232Z,989.16
2023-04-01T04:24:20.258Z,989.17
2023-04-01T04:25:20.293Z,989.19
2023-04-01T04:26:20.313Z,989.15
2023-04-01T04:27:20.338Z,989.17
2023-04-01T04:28:20.361Z,989.19
2023-04-01T04:29:20.411Z,989.22
2023-04-01T04:30:20.411Z,989.17
2023-04-01T04:31:20.461Z,989.22
2023-04-01T04:32:20.461Z,989.14
2023-04-01T04:33:20.491Z,989.15
2023-04-01T04:34:20.513Z,989.17
2023-04-01T04:35:20.549Z,989.19
2023-04-01T04:36:20.614Z,989.14
2023-04-01T04:37:20.593Z,989.17
2023-04-01T04:38:20.620Z,989.18
2023-04-01T04:39:20.645Z,989.13
2023-04-01T04:40:20.669Z,989.15
2023-04-01T04:41:20.698Z,989.18
2023-04-01T04:42:20.720Z,989.19
2023-04-01T04:43:20.754Z,989.18
2023-04-01T04:44:20.774Z,989.18
2023-04-01T04:45:20.822Z,989.18
2023-04-01T04:46:20.933Z,989.16
2023-04-01T04:47:20.980Z,989.19
2023-04-01T04:48:20.881Z,989.18
2023-04-01T04:49:20.904Z,989.20
2023-04-01T04:50:20.929Z,989.21
2023-04-01T04:51:20.957Z,989.23
2023-04-01T04:52:20.976Z,989.23
2023-04-01T04:53:21.005Z,989.28
2023-04-01T04:54:21.028Z,989.22
2023-04-01T04:55:21.055Z,989.23
2023-04-01T04:56:21.089Z,989.24
2023-04-01T04:57:21.144Z,989.30
2023-04-01T04:58:21.138Z,989.31
2023-04-01T04:59:21.192Z,989.27
2023-04-01T05:00:21.194Z,989.32
2023-04-01T05:01:21.298Z,989.34
2023-04-01T05:02:21.287Z,989.37
2023-04-01T05:03:21.431Z,989.37
2023-04-01T05:04:21.296Z,989.37
2023-04-01T05:05:21.318Z,989.42
2023-04-01T05:06:23.494Z,989.40
2023-04-01T05:07:21.376Z,989.41
2023-04-01T05:08:21.392Z,989.37
2023-04-01T05:09:21.415Z,989.41
2023-04-01T05:10:21.441Z,989.39
2023-04-01T05:11:21.479Z,989.41
2023-04-01T05:12:21.511Z,989.38
2023-04-01T05:13:21.522Z,989.44
2023-04-01T05:14:21.545Z,989.47
2023-04-01T05:15:21.600Z,989.41
2023-04-01T05:16:21.625Z,989.40
2023-04-01T05:17:21.662Z,989.43
2023-04-01T05:18:21.650Z,989.47
2023-04-01T05:19:21.677Z,989.48
2023-04-01T05:20:21.698Z,989.53
2023-04-01T05:21:21.726Z,989.45
2023-04-01T05:22:21.755Z,989.49
2023-04-01T05:23:21.778Z,989.49
2023-04-01T05:24:21.804Z,989.48
2023-04-01T05:25:21.835Z,989.53
2023-04-01T05:26:21.854Z,989.49
2023-04-01T05:27:21.880Z,989.51
2023-04-01T05:28:21.904Z,989.47
2023-04-01T05:29:21.934Z,989.51
2023-04-01T05:30:21.958Z,989.58
2023-04-01T05:31:22.010Z,989.56
2023-04-01T05:32:22.051Z,989.58
2023-04-01T05:33:22.054Z,989.61
2023-04-01T05:34:22.060Z,989.60
2023-04-01T05:35:22.123Z,989.56
2023-04-01T05:36:22.113Z,989.60
2023-04-01T05:37:22.141Z,989.65
2023-04-01T05:38:22.168Z,989.58
2023-04-01T05:39:22.193Z,989.65
2023-04-01T05:40:22.225Z,989.66
2023-04-01T05:41:22.244Z,989.61
2023-04-01T05:42:22.270Z,989.63
2023-04-01T05:43:22.296Z,989.60
2023-04-01T05:44:22.320Z,989.65
2023-04-01T05:45:22.351Z,989.62
2023-04-01T05:46:22.390Z,989.68
2023-04-01T05:47:22.439Z,989.66
2023-04-01T05:48:22.430Z,989.69
2023-04-01T05:49:22.473Z,989.63
2023-04-01T05:50:22.482Z,989.64
2023-04-01T05:51:22.506Z,989.68
2023-04-01T05:52:22.526Z,989.74
2023-04-01T05:53:22.554Z,989.66
2023-04-01T05:54:22.580Z,989.71
2023-04-01T05:55:22.610Z,989.64
2023-04-01T05:56:22.630Z,989.67
2023-04-01T05:57:22.684Z,989.71
2023-04-01T05:58:22.684Z,989.76
2023-04-01T05:59:22.712Z,989.67
2023-04-01T06:00:22.743Z,989.66
2023-04-01T06:01:22.764Z,989.73
2023-04-01T06:02:22.828Z,989.76
2023-04-01T06:03:22.958Z,989.72
2023-04-01T06:04:22.860Z,989.75
2023-04-01T06:05:22.891Z,989.76
2023-04-01T06:06:22.886Z,989.79
2023-04-01T06:07:22.912Z,989.78
2023-04-01T06:08:22.938Z,989.77
2023-04-01T06:09:22.965Z,989.79
2023-04-01T06:10:22.989Z,989.79
2023-04-01T06:11:23.017Z,989.80
2023-04-01T06:12:23.190Z,989.83
2023-04-01T06:13:23.068Z,989.87
2023-04-01T06:14:23.093Z,989.83
2023-04-01T06:15:23.117Z,989.80
2023-04-01T06:16:23.203Z,989.81
2023-04-01T06:17:23.245Z,989.88
2023-04-01T06:18:23.203Z,989.86
2023-04-01T06:19:23.237Z,989.85
2023-04-01T06:20:23.255Z,989.83
2023-04-01T06:21:23.288Z,989.88
2023-04-01T06:22:23.301Z,989.90
2023-04-01T06:23:23.325Z,989.89
2023-04-01T06:24:23.349Z,989.87
2023-04-01T06:25:23.377Z,989.90
2023-04-01T06:26:23.408Z,989.94
2023-04-01T06:27:23.427Z,989.92
2023-04-01T06:28:23.470Z,989.87
2023-04-01T06:29:23.482Z,989.87
2023-04-01T06:30:23.511Z,989.92
2023-04-01T06:31:23.622Z,989.92
2023-04-01T06:32:23.626Z,989.92
2023-04-01T06:33:23.584Z,989.96
2023-04-01T06:34:23.658Z,989.95
2023-04-01T06:35:23.640Z,989.97
2023-04-01T06:36:23.750Z,990.02
2023-04-01T06:37:23.716Z,990.04
2023-04-01T06:38:23.717Z,990.02
2023-04-01T06:39:23.740Z,989.99
2023-04-01T06:40:23.768Z,989.97
2023-04-01T06:41:23.794Z,990.01
2023-04-01T06:42:23.824Z,989.94
2023-04-01T06:43:23.848Z,990.01
2023-04-01T06:44:23.870Z,990.05
2023-04-01T06:45:23.898Z,989.99
2023-04-01T06:46:24.056Z,990.03
2023-04-01T06:47:23.951Z,990.00
2023-04-01T06:48:23.980Z,990.00
2023-04-01T06:49:24.001Z,990.01
2023-04-01T06:50:24.428Z,990.06
2023-04-01T06:51:24.053Z,990.04
2023-04-01T06:52:24.084Z,990.04
2023-04-01T06:53:24.125Z,990.04
2023-04-01T06:54:24.139Z,990.07
2023-04-01T06:55:24.158Z,990.04
2023-04-01T06:56:24.181Z,990.06
2023-04-01T06:57:24.255Z,990.12
2023-04-01T06:58:24.238Z,990.09
2023-04-01T06:59:24.271Z,990.07
2023-04-01T07:00:24.288Z,990.06
2023-04-01T07:01:24.333Z,990.09
2023-04-01T07:02:24.373Z,990.08
2023-04-01T07:03:24.374Z,990.15
2023-04-01T07:04:24.441Z,990.12
2023-04-01T07:05:24.417Z,990.13
2023-04-01T07:06:24.443Z,990.15
2023-04-01T07:07:24.674Z,990.19
2023-04-01T07:08:24.495Z,990.15
2023-04-01T07:09:24.546Z,990.20
2023-04-01T07:10:24.703Z,990.17
2023-04-01T07:11:24.571Z,990.22
2023-04-01T07:12:24.601Z,990.22
2023-04-01T07:13:24.625Z,990.22
2023-04-01T07:14:24.650Z,990.18
2023-04-01T07:15:24.674Z,990.18
2023-04-01T07:16:24.734Z,990.26
2023-04-01T07:17:24.790Z,990.16
2023-04-01T07:18:24.766Z,990.16
2023-04-01T07:19:24.779Z,990.23
2023-04-01T07:20:24.817Z,990.23
2023-04-01T07:21:24.833Z,990.22
2023-04-01T07:22:24.873Z,990.25
2023-04-01T07:23:24.885Z,990.22
2023-04-01T07:24:24.911Z,990.26
2023-04-01T07:25:24.954Z,990.25
2023-04-01T07:26:24.961Z,990.24
2023-04-01T07:27:24.992Z,990.26
2023-04-01T07:28:25.022Z,990.24
2023-04-01T07:29:25.041Z,990.28
2023-04-01T07:30:25.074Z,990.34
2023-04-01T07:31:25.115Z,990.32
2023-04-01T07:32:25.139Z,990.37
2023-04-01T07:33:25.146Z,990.34
2023-04-01T07:34:25.174Z,990.40
2023-04-01T07:35:25.200Z,990.36
2023-04-01T07:36:25.248Z,990.40
2023-04-01T07:37:25.250Z,990.40
2023-04-01T07:38:25.358Z,990.43
2023-04-01T07:39:25.310Z,990.43
2023-04-01T07:40:25.369Z,990.46
2023-04-01T07:41:25.383Z,990.44
2023-04-01T07:42:25.385Z,990.45
2023-04-01T07:43:25.408Z,990.49
2023-04-01T07:44:25.438Z,990.44
2023-04-01T07:45:25.465Z,990.45
2023-04-01T07:46:25.545Z,990.45
2023-04-01T07:47:25.580Z,990.46
2023-04-01T07:48:25.573Z,990.47
2023-04-01T07:49:25.568Z,990.51
2023-04-01T07:50:25.600Z,990.52
2023-04-01T07:51:25.620Z,990.57
2023-04-01T07:52:25.648Z,990.58
2023-04-01T07:53:25.671Z,990.54
2023-04-01T07:54:25.700Z,990.53
2023-04-01T07:55:25.727Z,990.62
2023-04-01T07:56:25.752Z,990.59
2023-04-01T07:57:25.860Z,990.60
2023-04-01T07:58:25.815Z,990.61
2023-04-01T07:59:25.830Z,990.58
2023-04-01T08:00:25.858Z,990.62
2023-04-01T08:01:25.883Z,990.63
2023-04-01T08:02:25.960Z,990.61
2023-04-01T08:03:26.033Z,990.63
2023-04-01T08:04:25.987Z,990.67
2023-04-01T08:05:25.990Z,990.66
2023-04-01T08:06:26.013Z,990.70
2023-04-01T08:07:26.038Z,990.71
2023-04-01T08:08:26.073Z,990.72
2023-04-01T08:09:26.090Z,990.73
2023-04-01T08:10:26.120Z,990.73
2023-04-01T08:11:26.144Z,990.69
2023-04-01T08:12:26.172Z,990.70
2023-04-01T08:13:26.228Z,990.72
2023-04-01T08:14:26.237Z,990.78
2023-04-01T08:15:26.243Z,990.80
2023-04-01T08:16:26.337Z,990.85
2023-04-01T08:17:26.309Z,990.86
2023-04-01T08:18:26.321Z,990.89
2023-04-01T08:19:26.346Z,990.85
2023-04-01T08:20:26.369Z,990.94
2023-04-01T08:21:26.401Z,990.89
2023-04-01T08:22:26.426Z,990.95
2023-04-01T08:23:26.448Z,990.95
2023-04-01T08:24:29.769Z,990.94
2023-04-01T08:25:26.508Z,990.94
2023-04-01T08:26:26.528Z,990.99
2023-04-01T08:27:26.554Z,991.03
2023-04-01T08:28:26.583Z,990.97
2023-04-01T08:29:26.625Z,991.06
2023-04-01T08:30:26.649Z,991.05
2023-04-01T08:31:26.666Z,990.97
2023-04-01T08:32:26.783Z,991.04
2023-04-01T08:33:26.709Z,991.04
2023-04-01T08:34:26.738Z,991.03
2023-04-01T08:35:26.784Z,991.08
2023-04-01T08:36:26.840Z,991.03
2023-04-01T08:37:26.813Z,991.08
2023-04-01T08:38:26.848Z,991.05
2023-04-01T08:39:26.864Z,991.13
2023-04-01T08:40:26.893Z,991.09
2023-04-01T08:41:26.920Z,991.14
2023-04-01T08:42:26.962Z,991.10
2023-04-01T08:43:26.973Z,991.16
2023-04-01T08:44:26.998Z,991.09
2023-04-01T08:45:27.085Z,991.14
2023-04-01T08:46:27.167Z,991.17
2023-04-01T08:47:27.096Z,991.08
2023-04-01T08:48:27.101Z,991.16
2023-04-01T08:49:27.128Z,991.19
2023-04-01T08:50:27.164Z,991.13
2023-04-01T08:51:27.183Z,991.17
2023-04-01T08:52:27.209Z,991.17
2023-04-01T08:53:27.284Z,991.20
2023-04-01T08:54:27.263Z,991.21
2023-04-01T08:55:27.286Z,991.21
2023-04-01T08:56:27.315Z,991.25
2023-04-01T08:57:27.413Z,991.30
2023-04-01T08:58:27.372Z,991.22
2023-04-01T08:59:27.392Z,991.31
2023-04-01T09:00:27.433Z,991.32
2023-04-01T09:01:27.466Z,991.27
2023-04-01T09:02:27.583Z,991.29
2023-04-01T09:03:27.578Z,991.30
2023-04-01T09:04:27.618Z,991.25
2023-04-01T09:05:27.549Z,991.32
2023-04-01T09:06:27.577Z,991.35
2023-04-01T09:07:27.602Z,991.36
2023-04-01T09:08:27.630Z,991.41
2023-04-01T09:09:27.663Z,991.28
2023-04-01T09:10:27.682Z,991.35
2023-04-01T09:11:27.721Z,991.37
2023-04-01T09:12:27.736Z,991.38
2023-04-01T09:13:27.762Z,991.31
2023-04-01T09:14:27.791Z,991.41
2023-04-01T09:15:27.814Z,991.35
2023-04-01T09:16:27.916Z,991.43
2023-04-01T09:17:27.908Z,991.41
2023-04-01T09:18:27.894Z,991.49
2023-04-01T09:19:27.922Z,991.42
2023-04-01T09:20:27.949Z,991.51
2023-04-01T09:21:27.975Z,991.42
2023-04-01T09:22:28.002Z,991.54
2023-04-01T09:23:28.029Z,991.52
2023-04-01T09:24:28.058Z,991.54
2023-04-01T09:25:28.083Z,991.57
2023-04-01T09:26:28.111Z,991.59
2023-04-01T09:27:28.153Z,991.53
2023-04-01T09:28:28.171Z,991.57
2023-04-01T09:29:28.191Z,991.59
2023-04-01T09:30:28.221Z,991.63
2023-04-01T09:31:28.313Z,991.65
2023-04-01T09:32:28.296Z,991.60
2023-04-01T09:33:28.318Z,991.73
2023-04-01T09:34:28.334Z,991.68
2023-04-01T09:35:28.353Z,991.65
2023-04-01T09:36:28.379Z,991.72
2023-04-01T09:37:28.408Z,991.69
2023-04-01T09:38:28.435Z,991.71
2023-04-01T09:39:28.457Z,991.66
2023-04-01T09:40:28.488Z,991.74
2023-04-01T09:41:28.513Z,991.77
2023-04-01T09:42:28.539Z,991.84
2023-04-01T09:43:28.566Z,991.76
2023-04-01T09:44:28.597Z,991.78
2023-04-01T09:45:28.621Z,991.72
2023-04-01T09:46:28.704Z,991.75
2023-04-01T09:47:28.707Z,991.77
2023-04-01T09:48:28.732Z,991.84
2023-04-01T09:49:28.746Z,991.80
2023-04-01T09:50:28.755Z,991.87
2023-04-01T09:51:28.782Z,991.85
2023-04-01T09:52:28.806Z,991.79
2023-04-01T09:53:28.834Z,991.87
2023-04-01T09:54:28.860Z,991.80
2023-04-01T09:55:28.887Z,991.92
2023-04-01T09:56:28.911Z,991.87
2023-04-01T09:57:29.034Z,991.94
2023-04-01T09:58:29.041Z,991.87
2023-04-01T09:59:28.996Z,991.86
2023-04-01T10:00:29.021Z,991.92
2023-04-01T10:01:29.136Z,991.84
2023-04-01T10:02:29.107Z,991.89
2023-04-01T10:03:29.875Z,991.88
2023-04-01T10:04:29.125Z,992.01
2023-04-01T10:05:29.241Z,991.96
2023-04-01T10:06:29.176Z,991.98
2023-04-01T10:07:29.200Z,992.02
2023-04-01T10:08:29.234Z,992.00
2023-04-01T10:09:29.256Z,991.99
2023-04-01T10:10:29.300Z,992.08
2023-04-01T10:11:29.308Z,992.11
2023-04-01T10:12:29.338Z,992.09
2023-04-01T10:13:29.362Z,992.06
2023-04-01T10:14:29.398Z,992.15
2023-04-01T10:15:29.415Z,992.09
2023-04-01T10:16:29.475Z,992.16
2023-04-01T10:17:29.500Z,992.13
2023-04-01T10:18:29.501Z,992.17
2023-04-01T10:19:29.520Z,992.16
2023-04-01T10:20:29.560Z,992.17
2023-04-01T10:21:29.600Z,992.15
2023-04-01T10:22:29.638Z,992.22
2023-04-01T10:23:29.649Z,992.27
2023-04-01T10:24:29.661Z,992.19
2023-04-01T10:25:29.681Z,992.20
2023-04-01T10:26:29.709Z,992.24
2023-04-01T10:27:29.732Z,992.25
2023-04-01T10:28:29.762Z,992.25
2023-04-01T10:29:29.785Z,992.23
2023-04-01T10:30:29.814Z,992.27
2023-04-01T10:31:29.866Z,992.21
2023-04-01T10:32:29.896Z,992.29
2023-04-01T10:33:29.896Z,992.31
2023-04-01T10:34:29.920Z,992.29
2023-04-01T10:35:29.946Z,992.31
2023-04-01T10:36:30.001Z,992.27
2023-04-01T10:37:30.023Z,992.31
2023-04-01T10:38:30.068Z,992.22
2023-04-01T10:39:30.076Z,992.28
2023-04-01T10:40:30.149Z,992.34
2023-04-01T10:41:30.109Z,992.30
2023-04-01T10:42:30.134Z,992.28
2023-04-01T10:43:30.163Z,992.32
2023-04-01T10:44:30.193Z,992.30
2023-04-01T10:45:30.327Z,992.33
2023-04-01T10:46:30.263Z,992.29
2023-04-01T10:47:30.331Z,992.30
2023-04-01T10:48:30.299Z,992.31
2023-04-01T10:49:30.324Z,992.32
2023-04-01T10:50:30.350Z,992.34
2023-04-01T10:51:30.380Z,992.32
2023-04-01T10:52:30.405Z,992.32
2023-04-01T10:53:30.452Z,992.35
2023-04-01T10:54:30.504Z,992.37
2023-04-01T10:55:30.604Z,992.31
2023-04-01T10:56:30.520Z,992.34
2023-04-01T10:57:30.766Z,992.33
2023-04-01T10:58:30.568Z,992.31
2023-04-01T10:59:30.595Z,992.34
2023-04-01T11:00:30.621Z,992.32
2023-04-01T11:01:30.720Z,992.32
2023-04-01T11:02:30.764Z,992.30
2023-04-01T11:03:30.783Z,992.35
2023-04-01T11:04:30.731Z,992.41
2023-04-01T11:05:30.858Z,992.34
2023-04-01T11:06:30.786Z,992.32
2023-04-01T11:07:30.816Z,992.41
2023-04-01T11:08:30.841Z,992.41
2023-04-01T11:09:30.894Z,992.40
2023-04-01T11:10:30.895Z,992.36
2023-04-01T11:11:30.925Z,992.36
2023-04-01T11:12:30.952Z,992.37
2023-04-01T11:13:30.979Z,992.42
2023-04-01T11:14:31.008Z,992.40
2023-04-01T11:15:31.193Z,992.38
2023-04-01T11:16:31.205Z,992.36
2023-04-01T11:17:31.123Z,992.39
2023-04-01T11:18:31.118Z,992.38
2023-04-01T11:19:31.143Z,992.48
2023-04-01T11:20:31.184Z,992.45
2023-04-01T11:21:31.200Z,992.44
2023-04-01T11:22:31.246Z,992.48
2023-04-01T11:23:31.279Z,992.50
2023-04-01T11:24:31.288Z,992.49
2023-04-01T11:25:31.631Z,992.50
2023-04-01T11:26:31.339Z,992.46
2023-04-01T11:27:31.377Z,992.49
2023-04-01T11:28:31.395Z,992.59
2023-04-01T11:29:31.424Z,992.54
2023-04-01T11:30:31.458Z,992.54
2023-04-01T11:31:31.672Z,992.56
2023-04-01T11:32:31.527Z,992.56
2023-04-01T11:33:31.535Z,992.55
2023-04-01T11:34:31.561Z,992.60
2023-04-01T11:35:31.946Z,992.53
2023-04-01T11:36:31.665Z,992.56
2023-04-01T11:37:31.650Z,992.58
2023-04-01T11:38:31.673Z,992.59
2023-04-01T11:39:31.700Z,992.59
2023-04-01T11:40:31.728Z,992.67
2023-04-01T11:41:31.788Z,992.67
2023-04-01T11:42:32.036Z,992.62
2023-04-01T11:43:33.845Z,992.64
2023-04-01T11:44:31.839Z,992.64
2023-04-01T11:45:32.193Z,992.67
2023-04-01T11:46:31.933Z,992.68
2023-04-01T11:47:32.118Z,992.67
2023-04-01T11:48:31.950Z,992.63
2023-04-01T11:49:31.981Z,992.70
2023-04-01T11:50:32.006Z,992.73
2023-04-01T11:51:32.043Z,992.71
2023-04-01T11:52:32.061Z,992.76
2023-04-01T11:53:32.089Z,992.77
2023-04-01T11:54:32.125Z,992.74
2023-04-01T11:55:32.412Z,992.88
2023-04-01T11:56:32.173Z,992.84
2023-04-01T11:57:32.470Z,992.89
2023-04-01T11:58:32.231Z,992.84
2023-04-01T11:59:32.269Z,992.87
2023-04-01T12:00:32.285Z,992.85
2023-04-01T12:01:32.313Z,992.88
2023-04-01T12:02:32.446Z,992.91
2023-04-01T12:03:32.541Z,992.91
2023-04-01T12:04:32.425Z,992.88
2023-04-01T12:05:32.695Z,992.95
2023-04-01T12:06:32.452Z,992.97
2023-04-01T12:07:32.479Z,992.95
2023-04-01T12:08:32.526Z,992.94
2023-04-01T12:09:32.537Z,992.95
2023-04-01T12:10:32.566Z,992.90
2023-04-01T12:11:32.597Z,993.02
2023-04-01T12:12:32.618Z,992.91
2023-04-01T12:13:32.670Z,992.94
2023-04-01T12:14:32.675Z,992.98
2023-04-01T12:15:32.869Z,992.99
2023-04-01T12:16:32.851Z,992.97
2023-04-01T12:17:32.786Z,993.01
2023-04-01T12:18:32.791Z,993.07
2023-04-01T12:19:32.816Z,993.04
2023-04-01T12:20:32.844Z,993.03
2023-04-01T12:21:32.870Z,993.06
2023-04-01T12:22:33.954Z,993.10
2023-04-01T12:23:32.927Z,993.04
2023-04-01T12:24:32.953Z,993.07
2023-04-01T12:25:33.217Z,993.12
2023-04-01T12:26:33.018Z,993.09
2023-04-01T12:27:33.035Z,993.10
2023-04-01T12:28:33.076Z,993.14